Time;durP1;ratioP1;P1;durP2;ratioP2;P2;SDS_P1;SDS_P2;PMS_P1;PMS_P2;Temp;Humidity;BMP_temperature;BMP_pressure;BME280_temperature;BME280_humidity;BME280_pressure;Samples;Min_cycle;Max_cycle;Signal;HPM_P1;HPM_P2
2022/03/28 00:00:08;;;;;;;21.17;9.93;;;;;;;7.98;47.06;95817.88;5030130;28;20052;-72
2022/03/28 00:02:33;;;;;;;15.98;8.80;;;;;;;7.93;46.91;95802.59;5013651;28;20029;-72
2022/03/28 00:04:59;;;;;;;15.52;9.07;;;;;;;7.88;46.93;95799.41;5031013;28;20044;-72
2022/03/28 00:07:24;;;;;;;16.10;9.27;;;;;;;7.97;46.97;95805.84;5040327;28;20033;-72
2022/03/28 00:09:49;;;;;;;17.77;8.73;;;;;;;7.95;46.84;95802.53;5044651;28;20029;-73
2022/03/28 00:12:15;;;;;;;17.00;8.90;;;;;;;8.02;46.85;95804.69;5014756;28;20155;-72
2022/03/28 00:14:40;;;;;;;16.38;9.02;;;;;;;7.95;47.52;95803.34;5040544;28;20492;-72
2022/03/28 00:17:06;;;;;;;16.75;9.27;;;;;;;7.98;47.44;95800.56;5029791;28;20033;-72
2022/03/28 00:19:31;;;;;;;17.88;9.75;;;;;;;7.91;46.95;95807.03;5046515;28;20469;-72
2022/03/28 00:21:57;;;;;;;18.48;9.20;;;;;;;7.89;47.09;95798.53;5050970;28;20544;-72
2022/03/28 00:24:22;;;;;;;13.98;9.27;;;;;;;7.72;47.55;95796.06;5033223;28;20036;-72
2022/03/28 00:26:48;;;;;;;15.82;9.10;;;;;;;7.73;47.35;95788.19;5049238;28;20059;-72
2022/03/28 00:29:13;;;;;;;16.83;9.02;;;;;;;7.73;47.50;95793.38;5050880;28;20045;-72
2022/03/28 00:31:39;;;;;;;18.02;10.30;;;;;;;7.71;47.25;95786.63;5034470;28;20018;-72
2022/03/28 00:34:04;;;;;;;20.02;10.43;;;;;;;7.80;47.10;95791.25;5029694;28;20037;-72
2022/03/28 00:36:30;;;;;;;24.42;12.88;;;;;;;7.82;47.22;95787.66;5031330;28;20464;-72
2022/03/28 00:38:55;;;;;;;24.02;11.65;;;;;;;7.76;46.81;95790.59;5029821;28;20041;-72
2022/03/28 00:41:21;;;;;;;21.75;12.25;;;;;;;7.72;46.99;95786.53;5029737;28;20030;-72
2022/03/28 00:43:56;;;;;;;24.77;11.50;;;;;;;7.59;46.98;95791.56;5030798;28;20037;-72
2022/03/28 00:46:22;;;;;;;22.13;12.70;;;;;;;7.42;47.07;95791.66;5029702;28;20079;-72
2022/03/28 00:48:48;;;;;;;25.13;13.20;;;;;;;7.43;46.99;95788.13;5029547;28;20038;-73
2022/03/28 00:51:13;;;;;;;25.75;13.10;;;;;;;7.30;47.41;95790.59;5029706;28;20025;-72
2022/03/28 00:53:39;;;;;;;18.90;11.48;;;;;;;7.29;48.15;95793.22;5029411;28;20115;-72
2022/03/28 00:56:05;;;;;;;18.02;9.52;;;;;;;7.15;50.05;95783.63;5029470;28;20411;-72
2022/03/28 00:58:31;;;;;;;15.98;9.77;;;;;;;7.08;49.83;95797.81;5029387;28;20172;-72
2022/03/28 01:00:56;;;;;;;17.73;9.85;;;;;;;6.93;49.74;95778.78;5029409;28;20527;-72
2022/03/28 01:03:21;;;;;;;21.08;10.13;;;;;;;6.88;49.59;95784.22;5012961;28;20037;-72
2022/03/28 01:05:47;;;;;;;18.73;9.77;;;;;;;6.85;49.07;95775.78;5030982;28;20033;-72
2022/03/28 01:08:13;;;;;;;18.30;9.57;;;;;;;6.67;50.05;95775.81;5028153;28;20082;-72
2022/03/28 01:10:39;;;;;;;14.40;8.73;;;;;;;6.66;50.14;95766.44;5032952;28;20021;-72
2022/03/28 01:13:04;;;;;;;15.60;9.23;;;;;;;6.70;50.13;95773.09;5032427;28;20033;-72
2022/03/28 01:15:30;;;;;;;25.17;10.30;;;;;;;6.70;50.10;95778.25;5031365;28;20187;-72
2022/03/28 01:18:08;;;;;;;15.55;9.65;;;;;;;6.67;50.27;95780.16;5036585;28;20029;-71
2022/03/28 01:20:36;;;;;;;18.67;9.13;;;;;;;6.67;50.14;95772.41;5031196;28;20075;-72
2022/03/28 01:23:01;;;;;;;15.90;9.07;;;;;;;6.45;50.60;95749.47;5036247;28;20342;-71
2022/03/28 01:25:29;;;;;;;17.65;9.48;;;;;;;6.65;50.37;95772.50;5034292;28;20041;-72
2022/03/28 01:27:54;;;;;;;14.82;9.07;;;;;;;6.55;50.33;95773.91;5014582;28;20037;-72
2022/03/28 01:30:20;;;;;;;19.20;9.30;;;;;;;6.59;50.19;95783.13;5032570;28;20025;-72
2022/03/28 01:32:47;;;;;;;14.68;8.95;;;;;;;6.55;50.36;95773.91;5050210;28;20041;-72
2022/03/28 01:35:12;;;;;;;17.40;9.77;;;;;;;6.45;50.33;95759.78;5032522;28;20025;-71
2022/03/28 01:37:38;;;;;;;15.23;8.75;;;;;;;6.49;50.48;95766.44;5034314;28;20454;-72
2022/03/28 01:40:04;;;;;;;16.33;8.38;;;;;;;6.38;50.50;95742.94;5051468;28;20375;-72
2022/03/28 01:42:30;;;;;;;14.48;8.57;;;;;;;6.50;50.50;95757.81;5032635;28;20175;-71
2022/03/28 01:44:57;;;;;;;17.80;8.77;;;;;;;6.66;50.55;95769.00;5032670;28;20025;-72
2022/03/28 01:47:27;;;;;;;18.00;8.95;;;;;;;6.63;50.95;95764.00;5032632;28;20117;-72
2022/03/28 01:49:53;;;;;;;15.32;8.85;;;;;;;6.55;50.48;95761.00;5032718;28;20053;-72
2022/03/28 01:52:18;;;;;;;13.50;8.10;;;;;;;6.47;49.92;95743.31;5032558;28;20041;-72
2022/03/28 01:54:44;;;;;;;12.73;8.02;;;;;;;6.57;50.44;95764.31;5015972;28;20395;-73
2022/03/28 01:57:09;;;;;;;14.98;8.75;;;;;;;6.59;50.49;95771.97;5033675;28;20038;-72
2022/03/28 01:59:35;;;;;;;15.73;8.88;;;;;;;6.53;50.54;95765.38;5033630;28;20049;-71
2022/03/28 02:02:00;;;;;;;17.85;8.48;;;;;;;6.57;50.46;95774.63;5036288;28;20036;-72
2022/03/28 02:04:26;;;;;;;14.02;8.18;;;;;;;6.47;50.48;95760.53;5051260;28;20033;-72
2022/03/28 02:06:51;;;;;;;16.05;8.60;;;;;;;6.59;50.44;95769.41;5050301;28;20037;-71
2022/03/28 02:09:16;;;;;;;13.55;8.43;;;;;;;6.51;50.30;95756.06;5050686;28;20024;-71
2022/03/28 02:11:42;;;;;;;15.73;8.85;;;;;;;6.61;50.47;95772.75;5053667;28;20526;-72
2022/03/28 02:14:07;;;;;;;12.35;8.75;;;;;;;6.62;50.45;95764.06;5052071;28;20487;-72
2022/03/28 02:16:33;;;;;;;12.15;7.90;;;;;;;6.63;50.40;95764.00;5053511;28;20075;-71
2022/03/28 02:18:58;;;;;;;14.75;8.05;;;;;;;6.57;50.50;95764.31;5053158;28;20057;-72
2022/03/28 02:21:24;;;;;;;14.55;8.32;;;;;;;6.52;50.82;95765.47;5052095;28;20487;-71
2022/03/28 02:23:49;;;;;;;14.00;8.30;;;;;;;6.53;50.93;95760.22;5050782;28;20067;-71
2022/03/28 02:26:15;;;;;;;15.35;8.43;;;;;;;6.55;51.48;95771.31;5047516;28;20018;-71
2022/03/28 02:28:40;;;;;;;13.10;8.05;;;;;;;6.49;51.82;95763.88;5039404;28;20502;-71
2022/03/28 02:31:05;;;;;;;14.63;8.02;;;;;;;6.42;51.43;95763.34;5015205;28;20029;-71
2022/03/28 02:33:31;;;;;;;15.23;8.00;;;;;;;6.32;51.23;95758.75;5039644;28;20617;-71
2022/03/28 02:35:56;;;;;;;11.52;7.75;;;;;;;6.38;51.38;95773.91;5037032;28;20037;-71
2022/03/28 02:38:22;;;;;;;15.00;8.35;;;;;;;6.26;51.49;95760.72;5033901;28;20060;-71
2022/03/28 02:40:47;;;;;;;15.65;9.27;;;;;;;6.31;51.56;95780.31;5051837;28;20021;-71
2022/03/28 02:43:13;;;;;;;15.73;8.75;;;;;;;6.17;51.75;95770.69;5052701;28;20435;-71
2022/03/28 02:45:38;;;;;;;14.63;7.55;;;;;;;6.13;52.08;95780.31;5034876;28;20032;-71
2022/03/28 02:48:04;;;;;;;15.75;8.32;;;;;;;6.12;52.12;95772.66;5051243;28;20067;-71
2022/03/28 02:50:30;;;;;;;14.02;7.60;;;;;;;6.15;52.25;95773.31;5050207;28;20455;-71
2022/03/28 02:52:56;;;;;;;16.52;8.32;;;;;;;6.19;52.17;95772.28;5014999;28;20091;-71
2022/03/28 02:55:22;;;;;;;18.17;8.80;;;;;;;6.12;51.90;95768.31;5031387;28;20041;-71
2022/03/28 02:57:47;;;;;;;15.95;8.38;;;;;;;6.18;51.73;95778.31;5014860;28;20033;-71
2022/03/28 03:00:13;;;;;;;16.13;7.97;;;;;;;6.18;51.78;95775.75;5014867;28;20029;-71
2022/03/28 03:02:38;;;;;;;12.88;8.10;;;;;;;6.14;52.03;95778.56;4998348;28;20033;-71
2022/03/28 03:05:06;;;;;;;14.60;8.20;;;;;;;6.13;52.03;95782.91;5032578;28;20033;-71
2022/03/28 03:07:32;;;;;;;12.77;8.18;;;;;;;6.14;52.18;95787.16;5031101;28;20034;-71
2022/03/28 03:09:57;;;;;;;18.02;9.25;;;;;;;6.15;52.33;95782.81;5014780;28;20503;-71
2022/03/28 03:12:23;;;;;;;15.68;8.07;;;;;;;6.14;52.14;95789.72;5031029;28;20040;-71
2022/03/28 03:14:48;;;;;;;15.82;8.25;;;;;;;6.12;52.01;95788.97;5032202;28;20291;-71
2022/03/28 03:17:13;;;;;;;11.57;8.20;;;;;;;6.11;52.19;95784.72;5030923;28;20041;-71
2022/03/28 03:19:40;;;;;;;15.48;8.68;;;;;;;5.97;52.33;95776.84;5032481;28;20152;-71
2022/03/28 03:22:07;;;;;;;13.02;8.35;;;;;;;6.01;52.21;95775.75;5030850;28;20040;-71
2022/03/28 03:24:32;;;;;;;13.68;7.63;;;;;;;6.03;52.24;95784.25;5030795;28;20476;-71
2022/03/28 03:26:58;;;;;;;13.40;8.60;;;;;;;5.96;52.13;95772.56;5031036;28;20030;-71
2022/03/28 03:29:23;;;;;;;14.50;8.18;;;;;;;5.93;52.40;95778.72;5050827;28;20364;-71
2022/03/28 03:31:49;;;;;;;13.82;8.60;;;;;;;5.89;52.03;95781.50;5051748;28;20491;-71
2022/03/28 03:34:14;;;;;;;12.57;7.93;;;;;;;5.83;52.77;95790.38;5049198;28;20033;-71
2022/03/28 03:36:40;;;;;;;12.85;8.38;;;;;;;5.81;52.95;95787.84;5037639;28;20021;-71
2022/03/28 03:39:05;;;;;;;16.95;8.75;;;;;;;5.80;52.77;95793.94;5050530;28;20166;-71
2022/03/28 03:41:30;;;;;;;12.95;8.25;;;;;;;5.74;52.94;95790.78;5043633;28;20475;-71
2022/03/28 03:43:56;;;;;;;14.02;8.52;;;;;;;5.74;53.09;95785.63;5030563;28;20064;-71
2022/03/28 03:46:21;;;;;;;13.27;8.02;;;;;;;5.69;52.79;95783.31;5013832;28;20487;-71
2022/03/28 03:48:47;;;;;;;14.50;7.85;;;;;;;5.61;53.11;95788.00;5013917;28;20094;-71
2022/03/28 03:51:13;;;;;;;13.88;8.00;;;;;;;5.63;52.92;95790.47;5030469;28;20084;-71
2022/03/28 03:53:39;;;;;;;17.15;8.77;;;;;;;5.59;53.15;95806.09;5036563;28;20036;-71
2022/03/28 03:56:04;;;;;;;13.02;8.27;;;;;;;5.60;53.30;95802.63;5033676;28;20388;-71
2022/03/28 03:58:29;;;;;;;13.23;8.27;;;;;;;5.59;53.27;95807.84;5051301;28;20419;-71
2022/03/28 04:00:55;;;;;;;14.40;8.18;;;;;;;5.45;53.40;95797.34;5032801;28;20029;-71
2022/03/28 04:03:20;;;;;;;13.95;7.95;;;;;;;5.48;53.36;95807.53;5033510;28;20040;-71
2022/03/28 04:05:46;;;;;;;14.70;8.77;;;;;;;5.52;53.37;95806.47;5050109;28;20028;-71
2022/03/28 04:08:11;;;;;;;14.63;8.00;;;;;;;5.49;53.48;95810.03;5051139;28;20047;-70
2022/03/28 04:10:36;;;;;;;16.17;8.23;;;;;;;5.44;53.70;95811.16;5049981;28;20028;-71
2022/03/28 04:13:05;;;;;;;13.23;8.00;;;;;;;5.43;53.77;95809.47;5049923;28;20029;-71
2022/03/28 04:15:30;;;;;;;13.48;9.45;;;;;;;5.43;53.97;95815.44;5051148;28;20040;-71
2022/03/28 04:17:56;;;;;;;16.83;8.50;;;;;;;5.35;53.90;95802.94;5049487;28;20029;-71
2022/03/28 04:20:22;;;;;;;13.65;8.57;;;;;;;5.32;53.96;95804.81;5049786;28;20068;-71
2022/03/28 04:22:47;;;;;;;13.52;7.80;;;;;;;5.23;54.01;95808.66;5050869;28;20033;-71
2022/03/28 04:25:13;;;;;;;16.83;8.32;;;;;;;5.27;54.05;95814.53;5049593;28;20028;-71
2022/03/28 04:27:38;;;;;;;14.75;8.85;;;;;;;5.22;54.09;95819.88;5032959;28;20057;-70
2022/03/28 04:30:07;;;;;;;13.27;8.40;;;;;;;5.27;54.08;95820.50;5029721;28;20491;-71
2022/03/28 04:32:33;;;;;;;16.02;8.65;;;;;;;5.21;54.13;95809.63;5030810;28;20048;-70
2022/03/28 04:34:59;;;;;;;13.27;7.80;;;;;;;5.14;54.25;95821.97;5029695;28;20476;-71
2022/03/28 04:37:24;;;;;;;14.63;8.18;;;;;;;5.17;54.69;95821.81;5038306;28;20166;-70
2022/03/28 04:39:50;;;;;;;15.45;8.27;;;;;;;5.16;54.40;95825.31;5041409;28;20112;-70
2022/03/28 04:42:15;;;;;;;14.43;7.90;;;;;;;5.15;54.81;95827.06;5027265;28;20036;-70
2022/03/28 04:44:41;;;;;;;14.20;7.90;;;;;;;5.13;54.41;95828.84;5049146;28;20067;-71
2022/03/28 04:47:07;;;;;;;14.48;8.18;;;;;;;5.09;54.96;95816.19;5050634;28;20037;-70
2022/03/28 04:49:32;;;;;;;13.38;7.57;;;;;;;5.04;55.00;95818.13;5036526;28;20029;-70
2022/03/28 04:51:58;;;;;;;17.17;8.60;;;;;;;5.10;54.85;95807.56;5049054;28;20059;-71
2022/03/28 04:54:23;;;;;;;12.02;7.60;;;;;;;5.03;55.58;95811.31;5043074;28;20036;-70
2022/03/28 04:56:49;;;;;;;13.25;7.60;;;;;;;5.03;55.26;95813.88;5031081;28;20037;-71
2022/03/28 04:59:14;;;;;;;15.85;8.07;;;;;;;4.93;55.46;95809.16;5029606;28;20164;-70
2022/03/28 05:01:39;;;;;;;14.63;7.85;;;;;;;4.96;55.17;95805.59;5031106;28;20021;-71
2022/03/28 05:04:05;;;;;;;14.43;7.88;;;;;;;4.97;55.51;95807.28;5029335;28;20451;-70
2022/03/28 05:06:30;;;;;;;14.80;8.43;;;;;;;5.05;54.97;95819.81;5035213;28;20032;-71
2022/03/28 05:08:56;;;;;;;12.23;7.93;;;;;;;4.99;55.36;95820.91;5048067;28;20317;-70
2022/03/28 05:11:22;;;;;;;14.30;8.77;;;;;;;5.07;55.23;95825.69;5050700;28;20426;-70
2022/03/28 05:13:49;;;;;;;24.08;11.82;;;;;;;5.09;55.60;95819.59;5054293;28;20499;-71
2022/03/28 05:16:15;;;;;;;29.90;14.05;;;;;;;5.29;55.02;95829.00;5036919;28;20056;-71
2022/03/28 05:18:40;;;;;;;23.00;14.50;;;;;;;5.87;53.65;95840.06;5053053;28;20568;-70
2022/03/28 05:21:06;;;;;;;25.42;15.80;;;;;;;6.82;51.18;95830.19;5054704;28;20028;-71
2022/03/28 05:23:32;;;;;;;27.95;17.33;;;;;;;7.56;49.33;95834.84;5054290;28;20025;-71
2022/03/28 05:25:57;;;;;;;23.52;14.32;;;;;;;8.35;47.22;95826.94;5053535;28;20529;-71
2022/03/28 05:28:23;;;;;;;18.23;12.85;;;;;;;9.04;45.64;95804.72;5046156;28;20034;-71
2022/03/28 05:30:49;;;;;;;19.67;13.10;;;;;;;9.63;44.20;95813.16;5034108;28;20056;-71
2022/03/28 05:33:14;;;;;;;21.67;12.90;;;;;;;10.13;42.93;95829.00;5043127;28;20031;-71
2022/03/28 05:35:42;;;;;;;21.38;12.32;;;;;;;10.21;42.19;95818.13;5052820;28;20044;-71
2022/03/28 05:38:07;;;;;;;20.67;12.48;;;;;;;10.04;42.38;95825.25;5052762;28;20063;-71
2022/03/28 05:40:33;;;;;;;19.30;11.93;;;;;;;9.82;43.52;95818.00;5036200;28;20032;-71
2022/03/28 05:42:58;;;;;;;17.02;11.10;;;;;;;9.95;43.91;95815.47;5053907;28;20033;-71
2022/03/28 05:45:25;;;;;;;23.92;12.25;;;;;;;10.02;43.64;95813.28;5052688;28;20044;-71
2022/03/28 05:47:50;;;;;;;20.50;11.82;;;;;;;9.89;43.88;95808.09;5052601;28;20032;-71
2022/03/28 05:50:15;;;;;;;24.33;14.30;;;;;;;9.88;43.92;95818.53;5052050;28;20560;-70
2022/03/28 05:52:41;;;;;;;25.60;15.18;;;;;;;9.83;43.86;95819.69;5052161;28;20029;-72
2022/03/28 05:55:07;;;;;;;28.75;15.63;;;;;;;9.88;44.30;95821.13;5026734;28;20041;-71
2022/03/28 05:57:33;;;;;;;32.33;17.38;;;;;;;9.96;43.73;95817.13;5044234;28;20080;-83
2022/03/28 05:59:58;;;;;;;33.47;17.20;;;;;;;9.91;43.42;95821.78;5033023;28;20034;-76
2022/03/28 06:02:24;;;;;;;27.55;16.90;;;;;;;9.75;43.60;95824.53;5033292;28;20030;-77
2022/03/28 06:04:50;;;;;;;23.58;15.82;;;;;;;9.64;44.45;95816.59;5053892;28;20041;-76
2022/03/28 06:07:15;;;;;;;27.55;15.85;;;;;;;9.67;44.52;95820.72;5018440;28;20033;-78
2022/03/28 06:09:41;;;;;;;27.52;15.52;;;;;;;9.89;44.32;95825.38;5032087;28;20088;-78
2022/03/28 06:12:08;;;;;;;25.50;15.40;;;;;;;9.95;43.14;95828.44;5045674;28;20051;-75
2022/03/28 06:14:33;;;;;;;24.15;15.00;;;;;;;9.94;43.72;95828.53;5040044;28;20036;-75
2022/03/28 06:16:58;;;;;;;34.28;16.33;;;;;;;10.13;43.89;95830.78;5041863;28;20037;-76
2022/03/28 06:19:24;;;;;;;37.33;17.35;;;;;;;10.18;43.17;95834.75;5023805;28;20041;-75
2022/03/28 06:21:49;;;;;;;27.33;16.67;;;;;;;10.23;43.23;95830.09;5046483;28;20059;-82
2022/03/28 06:24:17;;;;;;;30.35;16.08;;;;;;;10.28;43.24;95824.63;5034679;28;20103;-76
2022/03/28 06:26:42;;;;;;;29.75;16.27;;;;;;;10.34;42.93;95831.19;5050814;28;20036;-77
2022/03/28 06:29:09;;;;;;;28.33;16.08;;;;;;;10.44;43.02;95824.44;5041057;28;20030;-76
2022/03/28 06:31:35;;;;;;;28.60;16.10;;;;;;;10.62;42.90;95831.00;5035648;28;20108;-75
2022/03/28 06:34:02;;;;;;;25.83;16.30;;;;;;;10.85;42.30;95836.44;5026897;28;20083;-77
2022/03/28 06:36:29;;;;;;;30.92;16.60;;;;;;;11.05;42.45;95830.69;5031262;28;20043;-76
2022/03/28 06:38:55;;;;;;;38.50;17.38;;;;;;;11.14;42.67;95829.22;5031354;28;20423;-76
2022/03/28 06:41:21;;;;;;;31.80;17.95;;;;;;;11.40;41.43;95830.03;5035696;28;20044;-76
2022/03/28 06:43:47;;;;;;;25.25;16.08;;;;;;;11.49;40.98;95813.75;5039319;28;20644;-81
2022/03/28 06:46:13;;;;;;;26.17;16.15;;;;;;;11.54;41.70;95813.44;5020427;28;20124;-82
2022/03/28 06:48:39;;;;;;;28.73;15.80;;;;;;;11.93;40.36;95827.19;5041570;28;20025;-78
2022/03/28 06:51:06;;;;;;;24.90;14.90;;;;;;;12.15;40.11;95829.06;5028127;28;20028;-84
2022/03/28 06:53:31;;;;;;;25.10;15.48;;;;;;;12.26;39.48;95824.75;5030740;28;20075;-84
2022/03/28 06:55:57;;;;;;;26.98;15.20;;;;;;;12.37;39.12;95823.94;5031097;28;20068;-83
2022/03/28 06:58:22;;;;;;;28.65;14.20;;;;;;;12.29;39.32;95816.69;5012895;28;20037;-83
2022/03/28 07:00:48;;;;;;;26.08;14.27;;;;;;;12.42;39.22;95819.22;5027664;28;20041;-77
2022/03/28 07:03:14;;;;;;;22.50;14.68;;;;;;;12.50;39.17;95814.25;5025603;28;20029;-77
2022/03/28 07:05:39;;;;;;;26.90;15.50;;;;;;;12.76;39.55;95814.09;5041691;28;20111;-78
2022/03/28 07:08:04;;;;;;;23.23;14.32;;;;;;;12.85;39.27;95808.19;5016037;28;20041;-78
2022/03/28 07:10:31;;;;;;;26.60;14.13;;;;;;;13.11;38.37;95815.78;5049592;28;20029;-78
2022/03/28 07:12:56;;;;;;;27.45;15.80;;;;;;;13.14;38.55;95820.75;5046604;28;20156;-78
2022/03/28 07:15:22;;;;;;;25.45;14.82;;;;;;;13.11;38.67;95810.56;5035509;28;20036;-79
2022/03/28 07:17:51;;;;;;;20.02;13.57;;;;;;;13.21;38.69;95811.50;5029800;28;20613;-77
2022/03/28 07:20:18;;;;;;;26.23;14.35;;;;;;;12.94;38.53;95809.25;5050431;28;20047;-79
2022/03/28 07:22:43;;;;;;;23.85;13.73;;;;;;;13.21;38.33;95816.75;5028525;28;20041;-78
2022/03/28 07:25:09;;;;;;;22.80;14.18;;;;;;;13.19;38.24;95813.41;5032265;28;20032;-78
2022/03/28 07:27:38;;;;;;;25.70;13.98;;;;;;;13.12;38.41;95827.84;5046073;28;20038;-78
2022/03/28 07:30:05;;;;;;;22.92;14.30;;;;;;;13.12;38.29;95817.41;5031784;28;20138;-77
2022/03/28 07:32:30;;;;;;;31.98;16.42;;;;;;;13.01;39.49;95820.03;5021672;28;20035;-78
2022/03/28 07:34:55;;;;;;;27.38;17.10;;;;;;;12.71;39.92;95814.44;5043707;28;20033;-79
2022/03/28 07:37:22;;;;;;;24.95;16.42;;;;;;;12.97;39.59;95807.22;5049704;28;20056;-77
2022/03/28 07:39:48;;;;;;;30.90;15.30;;;;;;;13.27;39.03;95823.28;5047736;28;20119;-79
2022/03/28 07:42:13;;;;;;;23.55;14.00;;;;;;;13.36;38.62;95822.56;5031469;28;20124;-78
2022/03/28 07:44:39;;;;;;;24.13;13.48;;;;;;;13.39;39.04;95824.94;5049673;28;20021;-78
2022/03/28 07:47:08;;;;;;;22.70;13.88;;;;;;;13.40;38.98;95824.81;5029023;28;20419;-78
2022/03/28 07:49:35;;;;;;;24.77;15.18;;;;;;;13.54;38.80;95823.75;5046550;28;20107;-79
2022/03/28 07:52:01;;;;;;;32.45;16.48;;;;;;;13.66;38.24;95821.13;5010855;28;20022;-78
2022/03/28 07:54:27;;;;;;;33.55;17.13;;;;;;;13.55;38.31;95814.94;5031241;28;20510;-85
2022/03/28 07:56:52;;;;;;;29.55;15.43;;;;;;;13.66;38.42;95813.28;5044512;28;20044;-80
2022/03/28 07:59:18;;;;;;;29.95;15.55;;;;;;;13.75;38.64;95802.94;5046174;28;20454;-80
2022/03/28 08:01:43;;;;;;;23.45;13.65;;;;;;;13.93;37.89;95805.00;5048109;28;20045;-80
2022/03/28 08:04:08;;;;;;;22.85;13.43;;;;;;;14.03;37.33;95803.31;5049083;28;20025;-80
2022/03/28 08:06:34;;;;;;;21.33;13.80;;;;;;;13.96;37.78;95802.19;5047737;28;20040;-80
2022/03/28 08:08:59;;;;;;;26.55;13.02;;;;;;;13.97;38.47;95814.28;5045810;28;20414;-80
2022/03/28 08:11:25;;;;;;;26.02;12.30;;;;;;;14.08;38.05;95815.06;5048524;28;20025;-79
2022/03/28 08:13:50;;;;;;;19.80;12.57;;;;;;;13.77;38.75;95790.59;5048202;28;20076;-80
2022/03/28 08:16:16;;;;;;;22.00;12.07;;;;;;;14.11;38.66;95798.31;5044796;28;20029;-80
2022/03/28 08:18:41;;;;;;;24.85;13.95;;;;;;;14.04;37.79;95794.53;5048319;28;20118;-79
2022/03/28 08:21:08;;;;;;;24.25;13.35;;;;;;;14.14;38.49;95789.38;5046672;28;20039;-79
2022/03/28 08:23:35;;;;;;;24.77;13.15;;;;;;;14.02;37.90;95772.94;5027655;28;20029;-79
2022/03/28 08:26:00;;;;;;;21.33;12.80;;;;;;;14.26;37.58;95784.00;5047609;28;20036;-79
2022/03/28 08:28:26;;;;;;;21.27;12.02;;;;;;;14.28;38.19;95779.47;5046114;28;20036;-77
2022/03/28 08:30:52;;;;;;;20.30;11.52;;;;;;;14.46;37.72;95787.59;5040546;28;20039;-79
2022/03/28 08:33:18;;;;;;;24.90;12.70;;;;;;;14.66;37.59;95772.88;5037026;28;20029;-89
2022/03/28 08:35:46;;;;;;;24.00;11.57;;;;;;;14.83;36.74;95771.44;5038489;28;20029;-84
2022/03/28 08:38:12;;;;;;;18.40;11.93;;;;;;;14.74;36.46;95767.81;5025064;28;20032;-84
2022/03/28 08:40:40;;;;;;;19.58;11.52;;;;;;;14.79;37.43;95764.81;5021693;28;20037;-85
2022/03/28 08:43:06;;;;;;;20.30;11.95;;;;;;;14.74;37.35;95757.38;5045831;28;20160;-85
2022/03/28 08:45:32;;;;;;;20.73;11.55;;;;;;;14.79;36.99;95754.34;5030316;28;20111;-86
2022/03/28 08:47:58;;;;;;;17.63;11.70;;;;;;;14.85;37.20;95753.00;5044511;28;20041;-86
2022/03/28 08:50:23;;;;;;;19.00;11.23;;;;;;;14.95;37.09;95753.88;5030792;28;20029;-87
2022/03/28 08:52:48;;;;;;;22.83;11.43;;;;;;;14.99;37.03;95752.66;5044783;28;20102;-88
2022/03/28 08:55:14;;;;;;;20.13;11.90;;;;;;;14.90;37.18;95749.03;5030033;28;20036;-87
2022/03/28 08:57:40;;;;;;;20.88;11.73;;;;;;;14.75;37.35;95743.31;5046571;28;20033;-85
2022/03/28 09:00:08;;;;;;;17.95;11.60;;;;;;;14.81;36.95;95730.69;5046008;28;20032;-88
2022/03/28 09:02:46;;;;;;;20.73;11.15;;;;;;;14.69;37.09;95733.38;5047468;28;20108;-89
2022/03/28 09:05:12;;;;;;;18.45;11.77;;;;;;;14.55;37.43;95735.50;5046942;28;20036;-88
2022/03/28 09:07:38;;;;;;;24.23;11.77;;;;;;;14.46;37.97;95718.78;5044185;28;20029;-80
2022/03/28 09:10:21;;;;;;;18.17;11.48;;;;;;;14.58;37.48;95725.63;5047054;28;20029;-83
2022/03/28 09:12:59;;;;;;;21.08;11.43;;;;;;;14.59;37.43;95721.22;5047949;28;20041;-81
2022/03/28 09:15:26;;;;;;;16.55;10.60;;;;;;;14.57;38.09;95723.97;5049454;28;20040;-84
2022/03/28 09:17:58;;;;;;;22.48;12.57;;;;;;;14.63;38.11;95717.41;5047016;28;20045;-82
2022/03/28 09:20:24;;;;;;;28.13;12.02;;;;;;;14.73;37.99;95708.63;5047395;28;20064;-82
2022/03/28 09:22:49;;;;;;;19.05;11.20;;;;;;;14.75;37.06;95711.13;5047296;28;20037;-80
2022/03/28 09:25:17;;;;;;;22.30;11.45;;;;;;;14.75;37.05;95709.31;5047077;28;20037;-82
2022/03/28 09:27:44;;;;;;;18.23;11.23;;;;;;;14.87;37.51;95693.53;5013668;28;20132;-82
2022/03/28 09:30:29;;;;;;;22.45;11.38;;;;;;;15.05;37.13;95698.97;5030962;28;20029;-82
2022/03/28 09:32:54;;;;;;;16.25;10.98;;;;;;;15.19;36.66;95701.22;5032450;28;20032;-82
2022/03/28 09:35:21;;;;;;;24.20;11.82;;;;;;;15.19;36.39;95693.38;5032545;28;20037;-82
2022/03/28 09:37:58;;;;;;;22.60;12.32;;;;;;;15.09;36.67;95682.88;5016099;28;20094;-82
2022/03/28 09:40:42;;;;;;;16.20;11.45;;;;;;;15.29;37.78;95678.50;5032648;28;20037;-82
2022/03/28 09:43:17;;;;;;;18.45;11.30;;;;;;;15.51;36.59;95682.66;5032268;28;20037;-82
2022/03/28 09:45:46;;;;;;;18.42;11.48;;;;;;;15.64;36.42;95670.16;5050450;28;20112;-83
2022/03/28 09:48:12;;;;;;;19.67;12.23;;;;;;;15.77;36.05;95664.69;5032505;28;20041;-83
2022/03/28 09:50:39;;;;;;;19.95;11.75;;;;;;;15.85;36.19;95659.56;5049044;28;20036;-83
2022/03/28 09:53:21;;;;;;;21.92;12.40;;;;;;;16.01;35.44;95659.00;5032479;28;20102;-82
2022/03/28 09:55:53;;;;;;;18.65;11.57;;;;;;;16.18;35.60;95652.19;5016882;28;20124;-82
2022/03/28 09:58:33;;;;;;;19.13;11.45;;;;;;;16.21;34.87;95646.66;5032512;28;20037;-83
2022/03/28 10:00:59;;;;;;;19.88;11.02;;;;;;;16.29;34.38;95656.47;5054062;28;20028;-82
2022/03/28 10:03:25;;;;;;;16.27;10.80;;;;;;;16.38;34.71;95645.13;5052279;28;20064;-82
2022/03/28 10:05:50;;;;;;;18.63;11.30;;;;;;;16.43;34.44;95640.25;5019428;28;20031;-82
2022/03/28 10:08:15;;;;;;;16.52;11.55;;;;;;;16.37;34.58;95627.75;5035913;28;20041;-82
2022/03/28 10:10:41;;;;;;;18.13;10.68;;;;;;;16.46;34.92;95626.88;5053760;28;20049;-82
2022/03/28 10:13:06;;;;;;;17.42;10.90;;;;;;;16.58;34.75;95618.84;5053402;28;20057;-82
2022/03/28 10:15:32;;;;;;;22.38;11.32;;;;;;;16.69;34.82;95616.03;5035470;28;20033;-81
2022/03/28 10:17:57;;;;;;;22.15;11.68;;;;;;;16.62;34.68;95609.72;5035246;28;20047;-82
2022/03/28 10:20:24;;;;;;;17.83;11.13;;;;;;;16.59;33.83;95599.50;5018974;28;20079;-82
2022/03/28 10:22:51;;;;;;;16.95;10.40;;;;;;;16.60;34.65;95601.16;5051876;28;20087;-82
2022/03/28 10:25:21;;;;;;;19.50;11.75;;;;;;;16.61;33.88;95594.94;5035467;28;20029;-82
2022/03/28 10:27:46;;;;;;;17.95;11.10;;;;;;;16.60;34.01;95588.84;5035874;28;20036;-82
2022/03/28 10:30:24;;;;;;;17.92;10.40;;;;;;;16.46;34.14;95584.91;5018755;28;20075;-82
2022/03/28 10:33:14;;;;;;;15.95;10.63;;;;;;;16.55;34.48;95578.00;5036495;28;20037;-82
2022/03/28 10:35:39;;;;;;;17.17;9.90;;;;;;;16.66;33.36;95576.94;5051750;28;20032;-82
2022/03/28 10:38:18;;;;;;;19.45;10.98;;;;;;;16.61;33.36;95566.91;5034909;28;20044;-82
2022/03/28 10:41:05;;;;;;;17.45;9.55;;;;;;;16.50;34.02;95561.88;5035100;28;20419;-82
2022/03/28 10:43:32;;;;;;;16.63;10.20;;;;;;;16.64;33.74;95568.44;5035071;28;20044;-82
2022/03/28 10:45:59;;;;;;;19.58;10.88;;;;;;;16.65;33.88;95562.19;5035179;28;20560;-83
2022/03/28 10:48:39;;;;;;;19.35;10.93;;;;;;;16.70;34.07;95555.53;5051415;28;20029;-82
2022/03/28 10:51:29;;;;;;;16.88;10.95;;;;;;;16.66;33.86;95545.47;5051609;28;20037;-82
2022/03/28 10:53:58;;;;;;;18.67;10.18;;;;;;;16.81;34.30;95545.84;5051460;28;20029;-82
2022/03/28 10:56:27;;;;;;;18.65;9.75;;;;;;;16.86;33.78;95538.38;5051207;28;20033;-82
2022/03/28 10:58:57;;;;;;;19.15;9.73;;;;;;;16.87;33.44;95548.72;5034761;28;20032;-82
2022/03/28 11:01:26;;;;;;;15.90;9.57;;;;;;;16.96;33.39;95539.13;5053041;28;20124;-82
2022/03/28 11:04:00;;;;;;;17.65;9.60;;;;;;;16.95;33.39;95533.03;5052494;28;20020;-82
2022/03/28 11:07:01;;;;;;;24.08;9.93;;;;;;;17.00;33.18;95534.41;5035150;28;20033;-82
2022/03/28 11:09:38;;;;;;;15.40;11.00;;;;;;;16.92;33.31;95533.34;5034456;28;20032;-82
2022/03/28 11:12:09;;;;;;;15.70;10.75;;;;;;;16.99;33.45;95533.56;5052295;28;20052;-83
2022/03/28 11:14:45;;;;;;;19.33;11.23;;;;;;;16.80;33.20;95520.56;5035122;28;20090;-82
2022/03/28 11:17:20;;;;;;;18.50;10.32;;;;;;;16.86;33.23;95523.44;5035166;28;20033;-82
2022/03/28 11:19:53;;;;;;;19.42;9.73;;;;;;;16.90;33.25;95523.97;5052052;28;20041;-82
2022/03/28 11:22:41;;;;;;;17.77;9.98;;;;;;;16.93;33.46;95508.75;5034839;28;20056;-83